Time;durP1;ratioP1;P1;durP2;ratioP2;P2;SDS_P1;SDS_P2;PMS_P1;PMS_P2;Temp;Humidity;BMP_temperature;BMP_pressure;BME280_temperature;BME280_humidity;BME280_pressure;Samples;Min_cycle;Max_cycle;Signal;HPM_P1;HPM_P2
2022/12/07 00:00:01;;;;;;;1.8;1.8;;;;;;;4.1;100.0;101590;;;;
2022/12/07 00:01:08;;;;;;;1.8;1.8;;;;;;;4.0;100.0;101590;;;;
2022/12/07 00:02:00;;;;;;;1.8;1.8;;;;;;;4.0;100.0;101590;;;;
2022/12/07 00:03:00;;;;;;;1.8;1.8;;;;;;;4.0;100.0;101590;;;;
2022/12/07 00:04:04;;;;;;;1.8;1.8;;;;;;;4.0;100.0;101590;;;;
2022/12/07 00:05:00;;;;;;;1.8;1.8;;;;;;;4.0;100.0;101590;;;;
2022/12/07 00:06:01;;;;;;;1.8;1.8;;;;;;;4.0;100.0;101590;;;;
2022/12/07 00:07:01;;;;;;;1.8;1.8;;;;;;;4.0;100.0;101590;;;;
2022/12/07 00:08:00;;;;;;;1.8;1.8;;;;;;;4.0;100.0;101590;;;;
2022/12/07 00:09:00;;;;;;;1.8;1.8;;;;;;;4.0;100.0;101580;;;;
2022/12/07 00:10:00;;;;;;;1.8;1.8;;;;;;;4.0;100.0;101580;;;;
2022/12/07 00:11:01;;;;;;;1.8;1.8;;;;;;;3.9;100.0;101590;;;;
2022/12/07 00:12:00;;;;;;;1.8;1.8;;;;;;;3.9;100.0;101590;;;;
2022/12/07 00:13:00;;;;;;;1.8;1.8;;;;;;;3.8;100.0;101580;;;;
2022/12/07 00:14:01;;;;;;;1.8;1.8;;;;;;;3.8;100.0;101580;;;;
2022/12/07 00:15:00;;;;;;;1.8;1.8;;;;;;;3.8;100.0;101590;;;;
2022/12/07 00:16:02;;;;;;;2.4;2.4;;;;;;;3.8;100.0;101590;;;;
2022/12/07 00:17:00;;;;;;;2.4;2.4;;;;;;;3.8;100.0;101580;;;;
2022/12/07 00:18:00;;;;;;;2.4;2.4;;;;;;;3.8;100.0;101580;;;;
2022/12/07 00:19:00;;;;;;;2.4;2.4;;;;;;;3.8;100.0;101580;;;;
2022/12/07 00:20:00;;;;;;;2.4;2.4;;;;;;;3.8;100.0;101580;;;;
2022/12/07 00:21:01;;;;;;;2.4;2.4;;;;;;;3.8;100.0;101580;;;;
2022/12/07 00:22:00;;;;;;;2.4;2.4;;;;;;;3.8;100.0;101580;;;;
2022/12/07 00:23:00;;;;;;;2.4;2.4;;;;;;;3.7;100.0;101580;;;;
2022/12/07 00:24:00;;;;;;;2.4;2.4;;;;;;;3.7;100.0;101580;;;;
2022/12/07 00:25:00;;;;;;;2.4;2.4;;;;;;;3.7;100.0;101570;;;;
2022/12/07 00:26:04;;;;;;;2.4;2.4;;;;;;;3.7;100.0;101570;;;;
2022/12/07 00:27:00;;;;;;;2.4;2.4;;;;;;;3.7;100.0;101580;;;;
2022/12/07 00:28:00;;;;;;;2.4;2.4;;;;;;;3.7;100.0;101580;;;;
2022/12/07 00:29:02;;;;;;;2.4;2.4;;;;;;;3.7;100.0;101570;;;;
2022/12/07 00:30:00;;;;;;;2.4;2.4;;;;;;;3.7;100.0;101570;;;;
2022/12/07 00:31:04;;;;;;;2.4;2.4;;;;;;;3.7;100.0;101570;;;;
2022/12/07 00:32:00;;;;;;;2.4;2.4;;;;;;;3.7;100.0;101570;;;;
2022/12/07 00:33:00;;;;;;;2.4;2.4;;;;;;;3.7;100.0;101570;;;;
2022/12/07 00:34:00;;;;;;;2.4;2.4;;;;;;;3.7;100.0;101570;;;;
2022/12/07 00:35:00;;;;;;;2.4;2.4;;;;;;;3.7;100.0;101570;;;;
2022/12/07 00:36:01;;;;;;;2.3;2.3;;;;;;;3.7;100.0;101570;;;;
2022/12/07 00:37:00;;;;;;;2.3;2.3;;;;;;;3.7;100.0;101570;;;;
2022/12/07 00:38:00;;;;;;;2.3;2.3;;;;;;;3.7;100.0;101570;;;;
2022/12/07 00:39:00;;;;;;;2.3;2.3;;;;;;;3.7;100.0;101560;;;;
2022/12/07 00:40:00;;;;;;;2.3;2.3;;;;;;;3.7;100.0;101560;;;;
2022/12/07 00:41:02;;;;;;;2.3;2.3;;;;;;;3.6;100.0;101570;;;;
2022/12/07 00:42:00;;;;;;;2.3;2.3;;;;;;;3.6;100.0;101570;;;;
2022/12/07 00:43:00;;;;;;;2.3;2.3;;;;;;;3.5;100.0;101570;;;;
2022/12/07 00:44:00;;;;;;;2.3;2.3;;;;;;;3.5;100.0;101570;;;;
2022/12/07 00:45:00;;;;;;;2.3;2.3;;;;;;;3.6;100.0;101570;;;;
2022/12/07 00:46:00;;;;;;;2.3;2.3;;;;;;;3.6;100.0;101570;;;;
2022/12/07 00:47:00;;;;;;;2.3;2.3;;;;;;;3.6;100.0;101570;;;;
2022/12/07 00:48:00;;;;;;;2.3;2.3;;;;;;;3.6;100.0;101570;;;;
2022/12/07 00:49:00;;;;;;;2.3;2.3;;;;;;;3.6;100.0;101570;;;;
2022/12/07 00:50:00;;;;;;;2.3;2.3;;;;;;;3.6;100.0;101570;;;;
2022/12/07 00:51:00;;;;;;;2.3;2.3;;;;;;;3.6;100.0;101570;;;;
2022/12/07 00:52:00;;;;;;;2.3;2.3;;;;;;;3.6;100.0;101570;;;;
2022/12/07 00:53:00;;;;;;;2.3;2.3;;;;;;;3.5;100.0;101570;;;;
2022/12/07 00:54:00;;;;;;;2.3;2.3;;;;;;;3.5;100.0;101570;;;;
2022/12/07 00:55:00;;;;;;;2.3;2.3;;;;;;;3.6;100.0;101570;;;;
2022/12/07 00:56:08;;;;;;;2.2;2.2;;;;;;;3.6;100.0;101570;;;;
2022/12/07 00:57:00;;;;;;;2.2;2.2;;;;;;;3.5;100.0;101570;;;;
2022/12/07 00:58:00;;;;;;;2.2;2.2;;;;;;;3.5;100.0;101570;;;;
2022/12/07 00:59:01;;;;;;;2.2;2.2;;;;;;;3.6;100.0;101560;;;;
2022/12/07 01:00:00;;;;;;;2.2;2.2;;;;;;;3.6;100.0;101560;;;;
2022/12/07 01:01:02;;;;;;;2.2;2.2;;;;;;;3.5;100.0;101570;;;;
2022/12/07 01:02:00;;;;;;;2.2;2.2;;;;;;;3.5;100.0;101570;;;;
2022/12/07 01:03:00;;;;;;;2.2;2.2;;;;;;;3.5;100.0;101560;;;;
2022/12/07 01:04:01;;;;;;;2.2;2.2;;;;;;;3.5;100.0;101560;;;;
2022/12/07 01:05:00;;;;;;;2.2;2.2;;;;;;;3.5;100.0;101560;;;;
2022/12/07 01:06:00;;;;;;;2.2;2.2;;;;;;;3.5;100.0;101560;;;;
2022/12/07 01:07:00;;;;;;;2.2;2.2;;;;;;;3.6;100.0;101560;;;;
2022/12/07 01:08:00;;;;;;;2.2;2.2;;;;;;;3.6;100.0;101560;;;;
2022/12/07 01:09:00;;;;;;;2.2;2.2;;;;;;;3.6;100.0;101560;;;;
2022/12/07 01:10:00;;;;;;;2.2;2.2;;;;;;;3.6;100.0;101560;;;;
2022/12/07 01:11:01;;;;;;;2.2;2.2;;;;;;;3.7;100.0;101560;;;;
2022/12/07 01:12:00;;;;;;;2.2;2.2;;;;;;;3.7;100.0;101560;;;;
2022/12/07 01:13:00;;;;;;;2.2;2.2;;;;;;;3.7;100.0;101560;;;;
2022/12/07 01:14:00;;;;;;;2.2;2.2;;;;;;;3.7;100.0;101560;;;;
2022/12/07 01:15:00;;;;;;;2.6;2.5;;;;;;;3.6;100.0;101560;;;;
2022/12/07 01:16:01;;;;;;;2.6;2.5;;;;;;;3.6;100.0;101560;;;;
2022/12/07 01:17:00;;;;;;;2.6;2.5;;;;;;;3.6;100.0;101560;;;;
2022/12/07 01:18:00;;;;;;;2.6;2.5;;;;;;;3.6;100.0;101560;;;;
2022/12/07 01:19:00;;;;;;;2.6;2.5;;;;;;;3.7;100.0;101560;;;;
2022/12/07 01:20:01;;;;;;;2.6;2.5;;;;;;;3.7;100.0;101560;;;;
2022/12/07 01:21:01;;;;;;;2.6;2.5;;;;;;;3.6;100.0;101570;;;;
2022/12/07 01:22:00;;;;;;;2.6;2.5;;;;;;;3.6;100.0;101570;;;;
2022/12/07 01:23:00;;;;;;;2.6;2.5;;;;;;;3.6;100.0;101560;;;;
2022/12/07 01:24:00;;;;;;;2.6;2.5;;;;;;;3.6;100.0;101560;;;;
2022/12/07 01:25:00;;;;;;;2.6;2.5;;;;;;;3.5;100.0;101570;;;;
2022/12/07 01:26:04;;;;;;;2.6;2.5;;;;;;;3.5;100.0;101570;;;;
2022/12/07 01:27:00;;;;;;;2.6;2.5;;;;;;;3.5;100.0;101580;;;;
2022/12/07 01:28:00;;;;;;;2.6;2.5;;;;;;;3.5;100.0;101580;;;;
2022/12/07 01:29:00;;;;;;;2.6;2.5;;;;;;;3.5;100.0;101570;;;;
2022/12/07 01:30:00;;;;;;;2.6;2.5;;;;;;;3.5;100.0;101570;;;;
2022/12/07 01:31:03;;;;;;;2.6;2.5;;;;;;;3.5;100.0;101570;;;;
2022/12/07 01:32:00;;;;;;;2.6;2.5;;;;;;;3.5;100.0;101570;;;;
2022/12/07 01:33:00;;;;;;;2.6;2.5;;;;;;;3.4;100.0;101570;;;;
2022/12/07 01:34:00;;;;;;;2.6;2.5;;;;;;;3.4;100.0;101570;;;;
2022/12/07 01:35:00;;;;;;;2.7;2.6;;;;;;;3.5;100.0;101570;;;;
2022/12/07 01:36:04;;;;;;;2.7;2.6;;;;;;;3.5;100.0;101570;;;;
2022/12/07 01:37:00;;;;;;;2.7;2.6;;;;;;;3.4;100.0;101570;;;;
2022/12/07 01:38:00;;;;;;;2.7;2.6;;;;;;;3.4;100.0;101570;;;;
2022/12/07 01:39:01;;;;;;;2.7;2.6;;;;;;;3.5;100.0;101560;;;;
2022/12/07 01:40:01;;;;;;;2.7;2.6;;;;;;;3.5;100.0;101560;;;;
2022/12/07 01:41:01;;;;;;;2.7;2.6;;;;;;;3.4;100.0;101570;;;;
2022/12/07 01:42:00;;;;;;;2.7;2.6;;;;;;;3.4;100.0;101570;;;;
2022/12/07 01:43:00;;;;;;;2.7;2.6;;;;;;;3.4;100.0;101560;;;;
2022/12/07 01:44:10;;;;;;;2.7;2.6;;;;;;;3.4;100.0;101560;;;;
2022/12/07 01:45:10;;;;;;;2.7;2.6;;;;;;;3.4;100.0;101560;;;;
2022/12/07 01:46:00;;;;;;;2.7;2.6;;;;;;;3.4;100.0;101560;;;;
2022/12/07 01:47:01;;;;;;;2.7;2.6;;;;;;;3.5;100.0;101560;;;;
2022/12/07 01:48:00;;;;;;;2.7;2.6;;;;;;;3.5;100.0;101560;;;;
2022/12/07 01:49:01;;;;;;;2.7;2.6;;;;;;;3.5;100.0;101560;;;;
2022/12/07 01:50:01;;;;;;;2.7;2.6;;;;;;;3.5;100.0;101560;;;;
2022/12/07 01:51:03;;;;;;;2.7;2.6;;;;;;;3.5;100.0;101560;;;;
2022/12/07 01:52:07;;;;;;;2.7;2.6;;;;;;;3.5;100.0;101560;;;;
2022/12/07 01:53:02;;;;;;;2.7;2.6;;;;;;;3.5;100.0;101560;;;;
2022/12/07 01:54:00;;;;;;;2.7;2.6;;;;;;;3.5;100.0;101560;;;;
2022/12/07 01:55:02;;;;;;;3.1;3.0;;;;;;;3.4;100.0;101560;;;;
2022/12/07 01:56:00;;;;;;;3.1;3.0;;;;;;;3.4;100.0;101560;;;;
2022/12/07 01:57:01;;;;;;;3.1;3.0;;;;;;;3.4;100.0;101560;;;;
2022/12/07 01:58:00;;;;;;;3.1;3.0;;;;;;;3.4;100.0;101560;;;;
2022/12/07 01:59:00;;;;;;;3.1;3.0;;;;;;;3.3;100.0;101560;;;;
2022/12/07 02:00:01;;;;;;;3.1;3.0;;;;;;;3.3;100.0;101560;;;;
2022/12/07 02:01:00;;;;;;;3.1;3.0;;;;;;;3.3;100.0;101560;;;;
2022/12/07 02:02:02;;;;;;;3.1;3.0;;;;;;;3.3;100.0;101560;;;;
2022/12/07 02:03:05;;;;;;;3.1;3.0;;;;;;;3.3;100.0;101560;;;;
2022/12/07 02:04:00;;;;;;;3.1;3.0;;;;;;;3.3;100.0;101560;;;;
2022/12/07 02:05:02;;;;;;;3.1;3.0;;;;;;;3.3;100.0;101570;;;;
2022/12/07 02:06:00;;;;;;;3.1;3.0;;;;;;;3.3;100.0;101570;;;;
2022/12/07 02:07:00;;;;;;;3.1;3.0;;;;;;;3.3;100.0;101570;;;;
2022/12/07 02:08:00;;;;;;;3.1;3.0;;;;;;;3.3;100.0;101570;;;;
2022/12/07 02:09:00;;;;;;;3.1;3.0;;;;;;;3.3;100.0;101560;;;;
2022/12/07 02:10:10;;;;;;;3.1;3.0;;;;;;;3.3;100.0;101560;;;;
2022/12/07 02:11:03;;;;;;;3.1;3.0;;;;;;;3.3;100.0;101560;;;;
2022/12/07 02:12:00;;;;;;;3.1;3.0;;;;;;;3.3;100.0;101560;;;;
2022/12/07 02:13:02;;;;;;;3.1;3.0;;;;;;;3.2;100.0;101550;;;;
2022/12/07 02:14:00;;;;;;;3.1;3.0;;;;;;;3.2;100.0;101550;;;;
2022/12/07 02:15:00;;;;;;;2.5;2.5;;;;;;;3.2;100.0;101560;;;;
2022/12/07 02:16:08;;;;;;;2.5;2.5;;;;;;;3.2;100.0;101560;;;;
2022/12/07 02:17:01;;;;;;;2.5;2.5;;;;;;;3.3;100.0;101560;;;;
2022/12/07 02:18:07;;;;;;;2.5;2.5;;;;;;;3.3;100.0;101560;;;;
2022/12/07 02:19:01;;;;;;;2.5;2.5;;;;;;;3.2;100.0;101550;;;;
2022/12/07 02:20:08;;;;;;;2.5;2.5;;;;;;;3.2;100.0;101550;;;;
2022/12/07 02:21:08;;;;;;;2.5;2.5;;;;;;;3.2;100.0;101550;;;;
2022/12/07 02:22:10;;;;;;;2.5;2.5;;;;;;;3.2;100.0;101550;;;;
2022/12/07 02:23:07;;;;;;;2.5;2.5;;;;;;;3.1;100.0;101550;;;;
2022/12/07 02:24:10;;;;;;;2.5;2.5;;;;;;;3.1;100.0;101550;;;;
2022/12/07 02:25:03;;;;;;;2.5;2.5;;;;;;;3.1;100.0;101560;;;;
2022/12/07 02:26:10;;;;;;;2.5;2.5;;;;;;;3.1;100.0;101560;;;;
2022/12/07 02:27:00;;;;;;;2.5;2.5;;;;;;;3.1;100.0;101560;;;;
2022/12/07 02:28:00;;;;;;;2.5;2.5;;;;;;;3.1;100.0;101560;;;;
2022/12/07 02:29:10;;;;;;;2.5;2.5;;;;;;;3.1;100.0;101570;;;;
2022/12/07 02:30:03;;;;;;;2.5;2.5;;;;;;;3.1;100.0;101570;;;;
2022/12/07 02:31:05;;;;;;;2.5;2.5;;;;;;;3.2;100.0;101570;;;;
2022/12/07 02:32:07;;;;;;;2.5;2.5;;;;;;;3.2;100.0;101570;;;;
2022/12/07 02:33:01;;;;;;;2.5;2.5;;;;;;;3.1;100.0;101560;;;;
2022/12/07 02:34:05;;;;;;;2.5;2.5;;;;;;;3.1;100.0;101560;;;;
2022/12/07 02:35:10;;;;;;;2.2;2.2;;;;;;;3.0;100.0;101560;;;;
2022/12/07 02:36:04;;;;;;;2.2;2.2;;;;;;;3.0;100.0;101560;;;;
2022/12/07 02:37:04;;;;;;;2.2;2.2;;;;;;;3.0;100.0;101560;;;;
2022/12/07 02:38:10;;;;;;;2.2;2.2;;;;;;;3.0;100.0;101560;;;;
2022/12/07 02:39:06;;;;;;;2.2;2.2;;;;;;;3.0;100.0;101560;;;;
2022/12/07 02:40:06;;;;;;;2.2;2.2;;;;;;;3.0;100.0;101560;;;;
2022/12/07 02:41:03;;;;;;;2.2;2.2;;;;;;;2.9;100.0;101550;;;;
2022/12/07 02:42:04;;;;;;;2.2;2.2;;;;;;;2.9;100.0;101550;;;;
2022/12/07 02:43:04;;;;;;;2.2;2.2;;;;;;;3.0;100.0;101550;;;;
2022/12/07 02:44:02;;;;;;;2.2;2.2;;;;;;;3.0;100.0;101550;;;;
2022/12/07 02:45:01;;;;;;;2.2;2.2;;;;;;;2.9;100.0;101550;;;;
2022/12/07 02:46:04;;;;;;;2.2;2.2;;;;;;;2.9;100.0;101550;;;;
2022/12/07 02:47:02;;;;;;;2.2;2.2;;;;;;;2.8;100.0;101550;;;;
2022/12/07 02:48:00;;;;;;;2.2;2.2;;;;;;;2.8;100.0;101550;;;;
2022/12/07 02:50:03;;;;;;;2.2;2.2;;;;;;;2.9;100.0;101550;;;;
2022/12/07 02:51:00;;;;;;;2.2;2.2;;;;;;;2.8;100.0;101550;;;;
2022/12/07 02:52:00;;;;;;;2.2;2.2;;;;;;;2.8;100.0;101550;;;;
2022/12/07 02:53:00;;;;;;;2.2;2.2;;;;;;;2.8;100.0;101550;;;;
2022/12/07 02:54:01;;;;;;;2.2;2.2;;;;;;;2.8;100.0;101550;;;;
2022/12/07 02:55:00;;;;;;;2.7;2.6;;;;;;;2.8;100.0;101550;;;;
2022/12/07 02:56:03;;;;;;;2.7;2.6;;;;;;;2.8;100.0;101550;;;;
2022/12/07 02:57:01;;;;;;;2.7;2.6;;;;;;;2.9;100.0;101550;;;;
2022/12/07 02:58:03;;;;;;;2.7;2.6;;;;;;;2.9;100.0;101550;;;;
2022/12/07 02:59:00;;;;;;;2.7;2.6;;;;;;;2.8;100.0;101560;;;;
2022/12/07 03:00:07;;;;;;;2.7;2.6;;;;;;;2.8;100.0;101560;;;;
2022/12/07 03:01:09;;;;;;;2.7;2.6;;;;;;;2.8;100.0;101560;;;;
2022/12/07 03:02:08;;;;;;;2.7;2.6;;;;;;;2.8;100.0;101560;;;;
2022/12/07 03:03:04;;;;;;;2.7;2.6;;;;;;;2.8;100.0;101560;;;;
2022/12/07 03:04:08;;;;;;;2.7;2.6;;;;;;;2.8;100.0;101560;;;;
2022/12/07 03:05:10;;;;;;;2.7;2.6;;;;;;;2.8;100.0;101560;;;;
2022/12/07 03:06:10;;;;;;;2.7;2.6;;;;;;;2.8;100.0;101560;;;;
2022/12/07 03:07:05;;;;;;;2.7;2.6;;;;;;;2.8;100.0;101560;;;;
2022/12/07 03:08:00;;;;;;;2.7;2.6;;;;;;;2.8;100.0;101560;;;;
2022/12/07 03:09:07;;;;;;;2.7;2.6;;;;;;;2.8;100.0;101560;;;;
2022/12/07 03:10:07;;;;;;;2.7;2.6;;;;;;;2.8;100.0;101560;;;;
2022/12/07 03:11:03;;;;;;;2.7;2.6;;;;;;;2.8;100.0;101560;;;;
2022/12/07 03:12:05;;;;;;;2.7;2.6;;;;;;;2.8;100.0;101560;;;;
2022/12/07 03:13:07;;;;;;;2.7;2.6;;;;;;;2.9;100.0;101560;;;;
2022/12/07 03:14:08;;;;;;;2.7;2.6;;;;;;;2.9;100.0;101560;;;;
2022/12/07 03:15:03;;;;;;;2.3;2.3;;;;;;;2.9;100.0;101560;;;;
2022/12/07 03:16:10;;;;;;;2.3;2.3;;;;;;;2.9;100.0;101560;;;;
2022/12/07 03:17:04;;;;;;;2.3;2.3;;;;;;;2.9;100.0;101560;;;;
2022/12/07 03:18:01;;;;;;;2.3;2.3;;;;;;;2.9;100.0;101560;;;;
2022/12/07 03:19:04;;;;;;;2.3;2.3;;;;;;;3.0;100.0;101570;;;;
2022/12/07 03:20:03;;;;;;;2.3;2.3;;;;;;;3.0;100.0;101570;;;;
2022/12/07 03:21:04;;;;;;;2.3;2.3;;;;;;;3.0;100.0;101570;;;;
2022/12/07 03:22:02;;;;;;;2.3;2.3;;;;;;;3.0;100.0;101570;;;;
2022/12/07 03:23:00;;;;;;;2.3;2.3;;;;;;;3.0;100.0;101560;;;;
2022/12/07 03:24:03;;;;;;;2.3;2.3;;;;;;;3.0;100.0;101560;;;;
2022/12/07 03:25:04;;;;;;;2.3;2.3;;;;;;;3.0;100.0;101560;;;;
2022/12/07 03:26:01;;;;;;;2.3;2.3;;;;;;;3.0;100.0;101560;;;;
2022/12/07 03:27:04;;;;;;;2.3;2.3;;;;;;;3.0;100.0;101560;;;;
2022/12/07 03:28:04;;;;;;;2.3;2.3;;;;;;;3.0;100.0;101560;;;;
2022/12/07 03:29:02;;;;;;;2.3;2.3;;;;;;;2.9;100.0;101560;;;;
2022/12/07 03:30:10;;;;;;;2.3;2.3;;;;;;;2.9;100.0;101560;;;;
2022/12/07 03:31:03;;;;;;;2.3;2.3;;;;;;;2.9;100.0;101560;;;;
2022/12/07 03:32:06;;;;;;;2.3;2.3;;;;;;;2.9;100.0;101560;;;;
2022/12/07 03:33:04;;;;;;;2.3;2.3;;;;;;;2.9;100.0;101550;;;;
2022/12/07 03:34:06;;;;;;;2.3;2.3;;;;;;;2.9;100.0;101550;;;;
2022/12/07 03:35:07;;;;;;;2.2;2.2;;;;;;;3.0;100.0;101550;;;;
2022/12/07 03:36:04;;;;;;;2.2;2.2;;;;;;;3.0;100.0;101550;;;;
2022/12/07 03:37:04;;;;;;;2.2;2.2;;;;;;;2.9;100.0;101550;;;;
2022/12/07 03:38:03;;;;;;;2.2;2.2;;;;;;;2.9;100.0;101550;;;;
2022/12/07 03:39:09;;;;;;;2.2;2.2;;;;;;;2.9;100.0;101550;;;;
2022/12/07 03:40:07;;;;;;;2.2;2.2;;;;;;;2.9;100.0;101550;;;;
2022/12/07 03:41:02;;;;;;;2.2;2.2;;;;;;;2.9;100.0;101550;;;;
2022/12/07 03:42:02;;;;;;;2.2;2.2;;;;;;;2.9;100.0;101550;;;;
2022/12/07 03:43:01;;;;;;;2.2;2.2;;;;;;;2.9;100.0;101540;;;;
2022/12/07 03:44:00;;;;;;;2.2;2.2;;;;;;;2.9;100.0;101540;;;;
2022/12/07 03:45:02;;;;;;;2.2;2.2;;;;;;;2.9;100.0;101540;;;;
2022/12/07 03:46:10;;;;;;;2.2;2.2;;;;;;;2.9;100.0;101540;;;;
2022/12/07 03:47:05;;;;;;;2.2;2.2;;;;;;;2.9;100.0;101540;;;;
2022/12/07 03:48:10;;;;;;;2.2;2.2;;;;;;;2.9;100.0;101540;;;;
2022/12/07 03:49:03;;;;;;;2.2;2.2;;;;;;;2.9;100.0;101540;;;;
2022/12/07 03:50:02;;;;;;;2.2;2.2;;;;;;;2.9;100.0;101540;;;;
2022/12/07 03:51:07;;;;;;;2.2;2.2;;;;;;;3.0;100.0;101540;;;;
2022/12/07 03:52:04;;;;;;;2.2;2.2;;;;;;;3.0;100.0;101540;;;;
2022/12/07 03:53:04;;;;;;;2.2;2.2;;;;;;;3.0;100.0;101550;;;;
2022/12/07 03:54:06;;;;;;;2.2;2.2;;;;;;;3.0;100.0;101550;;;;
2022/12/07 03:55:05;;;;;;;2.9;2.8;;;;;;;3.1;100.0;101540;;;;
2022/12/07 03:56:01;;;;;;;2.9;2.8;;;;;;;3.1;100.0;101540;;;;
2022/12/07 03:57:01;;;;;;;2.9;2.8;;;;;;;3.1;100.0;101550;;;;
2022/12/07 03:58:03;;;;;;;2.9;2.8;;;;;;;3.1;100.0;101550;;;;
2022/12/07 03:59:00;;;;;;;2.9;2.8;;;;;;;3.2;100.0;101540;;;;
2022/12/07 04:00:01;;;;;;;2.9;2.8;;;;;;;3.2;100.0;101540;;;;
2022/12/07 04:01:00;;;;;;;2.9;2.8;;;;;;;3.2;100.0;101550;;;;
2022/12/07 04:02:02;;;;;;;2.9;2.8;;;;;;;3.2;100.0;101550;;;;
2022/12/07 04:03:00;;;;;;;2.9;2.8;;;;;;;3.2;100.0;101540;;;;
2022/12/07 04:04:00;;;;;;;2.9;2.8;;;;;;;3.2;100.0;101540;;;;
2022/12/07 04:05:00;;;;;;;2.9;2.8;;;;;;;3.2;100.0;101540;;;;
2022/12/07 04:06:00;;;;;;;2.9;2.8;;;;;;;3.2;100.0;101540;;;;
2022/12/07 04:07:00;;;;;;;2.9;2.8;;;;;;;3.1;100.0;101540;;;;
2022/12/07 04:08:00;;;;;;;2.9;2.8;;;;;;;3.1;100.0;101540;;;;
2022/12/07 04:09:00;;;;;;;2.9;2.8;;;;;;;3.1;100.0;101540;;;;
2022/12/07 04:10:01;;;;;;;2.9;2.8;;;;;;;3.1;100.0;101540;;;;
2022/12/07 04:11:00;;;;;;;2.9;2.8;;;;;;;3.2;100.0;101540;;;;
2022/12/07 04:12:00;;;;;;;2.9;2.8;;;;;;;3.2;100.0;101540;;;;
2022/12/07 04:13:00;;;;;;;2.9;2.8;;;;;;;3.2;100.0;101540;;;;
2022/12/07 04:15:00;;;;;;;2.2;2.2;;;;;;;3.2;100.0;101540;;;;
2022/12/07 04:16:00;;;;;;;2.2;2.2;;;;;;;3.2;100.0;101540;;;;
2022/12/07 04:17:00;;;;;;;2.2;2.2;;;;;;;3.3;100.0;101540;;;;
2022/12/07 04:18:00;;;;;;;2.2;2.2;;;;;;;3.3;100.0;101540;;;;
2022/12/07 04:19:00;;;;;;;2.2;2.2;;;;;;;3.2;100.0;101540;;;;
2022/12/07 04:20:01;;;;;;;2.2;2.2;;;;;;;3.2;100.0;101540;;;;
2022/12/07 04:21:00;;;;;;;2.2;2.2;;;;;;;3.3;100.0;101540;;;;
2022/12/07 04:22:01;;;;;;;2.2;2.2;;;;;;;3.3;100.0;101540;;;;
2022/12/07 04:23:00;;;;;;;2.2;2.2;;;;;;;3.3;100.0;101540;;;;
2022/12/07 04:24:00;;;;;;;2.2;2.2;;;;;;;3.3;100.0;101540;;;;
2022/12/07 04:25:00;;;;;;;2.2;2.2;;;;;;;3.2;100.0;101550;;;;
2022/12/07 04:26:00;;;;;;;2.2;2.2;;;;;;;3.2;100.0;101550;;;;
2022/12/07 04:27:00;;;;;;;2.2;2.2;;;;;;;3.2;100.0;101550;;;;
2022/12/07 04:28:00;;;;;;;2.2;2.2;;;;;;;3.2;100.0;101550;;;;
2022/12/07 04:29:07;;;;;;;2.2;2.2;;;;;;;3.2;100.0;101560;;;;
2022/12/07 04:30:01;;;;;;;2.2;2.2;;;;;;;3.2;100.0;101560;;;;
2022/12/07 04:31:00;;;;;;;2.2;2.2;;;;;;;3.3;100.0;101560;;;;
2022/12/07 04:32:00;;;;;;;2.2;2.2;;;;;;;3.3;100.0;101560;;;;
2022/12/07 04:33:00;;;;;;;2.2;2.2;;;;;;;3.3;100.0;101550;;;;
2022/12/07 04:34:00;;;;;;;2.2;2.2;;;;;;;3.3;100.0;101550;;;;
2022/12/07 04:35:00;;;;;;;2.6;2.5;;;;;;;3.4;100.0;101550;;;;
2022/12/07 04:36:00;;;;;;;2.6;2.5;;;;;;;3.4;100.0;101550;;;;
2022/12/07 04:37:00;;;;;;;2.6;2.5;;;;;;;3.3;100.0;101540;;;;
2022/12/07 04:38:00;;;;;;;2.6;2.5;;;;;;;3.3;100.0;101540;;;;
2022/12/07 04:39:00;;;;;;;2.6;2.5;;;;;;;3.3;100.0;101540;;;;
2022/12/07 04:40:01;;;;;;;2.6;2.5;;;;;;;3.3;100.0;101540;;;;
2022/12/07 04:41:04;;;;;;;2.6;2.5;;;;;;;3.5;100.0;101540;;;;
2022/12/07 04:42:00;;;;;;;2.6;2.5;;;;;;;3.5;100.0;101540;;;;
2022/12/07 04:43:00;;;;;;;2.6;2.5;;;;;;;3.4;100.0;101530;;;;
2022/12/07 04:44:02;;;;;;;2.6;2.5;;;;;;;3.4;100.0;101530;;;;
2022/12/07 04:45:00;;;;;;;2.6;2.5;;;;;;;3.4;100.0;101540;;;;
2022/12/07 04:46:00;;;;;;;2.6;2.5;;;;;;;3.4;100.0;101540;;;;
2022/12/07 04:47:00;;;;;;;2.6;2.5;;;;;;;3.4;100.0;101530;;;;
2022/12/07 04:48:00;;;;;;;2.6;2.5;;;;;;;3.4;100.0;101530;;;;
2022/12/07 04:49:00;;;;;;;2.6;2.5;;;;;;;3.3;100.0;101530;;;;
2022/12/07 04:50:01;;;;;;;2.6;2.5;;;;;;;3.3;100.0;101530;;;;
2022/12/07 04:51:00;;;;;;;2.6;2.5;;;;;;;3.3;100.0;101530;;;;
2022/12/07 04:52:00;;;;;;;2.6;2.5;;;;;;;3.3;100.0;101530;;;;
2022/12/07 04:53:00;;;;;;;2.6;2.5;;;;;;;3.2;100.0;101530;;;;
2022/12/07 04:54:00;;;;;;;2.3;2.3;;;;;;;3.2;100.0;101530;;;;
2022/12/07 04:55:00;;;;;;;2.3;2.3;;;;;;;3.3;100.0;101530;;;;
2022/12/07 04:56:00;;;;;;;2.3;2.3;;;;;;;3.3;100.0;101530;;;;
2022/12/07 04:57:00;;;;;;;2.3;2.3;;;;;;;3.2;100.0;101530;;;;
2022/12/07 04:58:00;;;;;;;2.3;2.3;;;;;;;3.2;100.0;101530;;;;
2022/12/07 04:59:00;;;;;;;2.3;2.3;;;;;;;3.2;100.0;101520;;;;
2022/12/07 05:00:01;;;;;;;2.3;2.3;;;;;;;3.2;100.0;101520;;;;
2022/12/07 05:01:00;;;;;;;2.3;2.3;;;;;;;3.2;100.0;101520;;;;
2022/12/07 05:02:00;;;;;;;2.3;2.3;;;;;;;3.2;100.0;101520;;;;
2022/12/07 05:03:00;;;;;;;2.3;2.3;;;;;;;3.1;100.0;101520;;;;
2022/12/07 05:04:00;;;;;;;2.3;2.3;;;;;;;3.1;100.0;101520;;;;
2022/12/07 05:05:00;;;;;;;2.3;2.3;;;;;;;3.0;100.0;101520;;;;
2022/12/07 05:06:00;;;;;;;2.3;2.3;;;;;;;3.0;100.0;101520;;;;
2022/12/07 05:07:00;;;;;;;2.3;2.3;;;;;;;3.0;100.0;101520;;;;
2022/12/07 05:08:00;;;;;;;2.3;2.3;;;;;;;3.0;100.0;101520;;;;
2022/12/07 05:09:01;;;;;;;2.3;2.3;;;;;;;3.0;100.0;101520;;;;
2022/12/07 05:10:01;;;;;;;2.3;2.3;;;;;;;3.0;100.0;101520;;;;
2022/12/07 05:11:01;;;;;;;2.3;2.3;;;;;;;2.9;100.0;101520;;;;
2022/12/07 05:12:00;;;;;;;2.3;2.3;;;;;;;2.9;100.0;101520;;;;
2022/12/07 05:13:00;;;;;;;2.3;2.3;;;;;;;2.9;100.0;101520;;;;
2022/12/07 05:14:00;;;;;;;2.6;2.5;;;;;;;2.9;100.0;101520;;;;
2022/12/07 05:15:00;;;;;;;2.6;2.5;;;;;;;2.9;100.0;101520;;;;
2022/12/07 05:16:00;;;;;;;2.6;2.5;;;;;;;2.9;100.0;101520;;;;
2022/12/07 05:17:00;;;;;;;2.6;2.5;;;;;;;2.9;100.0;101520;;;;
2022/12/07 05:18:00;;;;;;;2.6;2.5;;;;;;;2.9;100.0;101520;;;;
2022/12/07 05:19:00;;;;;;;2.6;2.5;;;;;;;2.8;100.0;101530;;;;
2022/12/07 05:20:01;;;;;;;2.6;2.5;;;;;;;2.8;100.0;101530;;;;
2022/12/07 05:21:00;;;;;;;2.6;2.5;;;;;;;2.8;100.0;101530;;;;
2022/12/07 05:22:00;;;;;;;2.6;2.5;;;;;;;2.8;100.0;101530;;;;
2022/12/07 05:23:00;;;;;;;2.6;2.5;;;;;;;2.9;100.0;101520;;;;
2022/12/07 05:24:00;;;;;;;2.6;2.5;;;;;;;2.9;100.0;101520;;;;
2022/12/07 05:25:00;;;;;;;2.6;2.5;;;;;;;2.9;100.0;101530;;;;
2022/12/07 05:26:00;;;;;;;2.6;2.5;;;;;;;2.9;100.0;101530;;;;
2022/12/07 05:27:00;;;;;;;2.6;2.5;;;;;;;2.8;100.0;101530;;;;
2022/12/07 05:28:00;;;;;;;2.6;2.5;;;;;;;2.8;100.0;101530;;;;
2022/12/07 05:29:00;;;;;;;2.6;2.5;;;;;;;2.9;100.0;101530;;;;
2022/12/07 05:30:00;;;;;;;2.6;2.5;;;;;;;2.9;100.0;101530;;;;
2022/12/07 05:31:00;;;;;;;2.6;2.5;;;;;;;2.9;100.0;101530;;;;
2022/12/07 05:32:00;;;;;;;2.6;2.5;;;;;;;2.9;100.0;101530;;;;
2022/12/07 05:33:00;;;;;;;2.6;2.5;;;;;;;2.8;100.0;101530;;;;
2022/12/07 05:34:00;;;;;;;2.3;2.3;;;;;;;2.8;100.0;101530;;;;
2022/12/07 05:35:00;;;;;;;2.3;2.3;;;;;;;2.8;100.0;101530;;;;
2022/12/07 05:36:05;;;;;;;2.3;2.3;;;;;;;2.8;100.0;101530;;;;
2022/12/07 05:37:00;;;;;;;2.3;2.3;;;;;;;2.8;100.0;101530;;;;
2022/12/07 05:38:00;;;;;;;2.3;2.3;;;;;;;2.8;100.0;101530;;;;
2022/12/07 05:39:00;;;;;;;2.3;2.3;;;;;;;2.8;100.0;101530;;;;
2022/12/07 05:40:01;;;;;;;2.3;2.3;;;;;;;2.8;100.0;101530;;;;
2022/12/07 05:41:02;;;;;;;2.3;2.3;;;;;;;2.8;100.0;101530;;;;
2022/12/07 05:43:05;;;;;;;2.3;2.3;;;;;;;2.7;100.0;101530;;;;
2022/12/07 05:44:00;;;;;;;2.3;2.3;;;;;;;2.7;100.0;101530;;;;
2022/12/07 05:45:00;;;;;;;2.3;2.3;;;;;;;2.7;100.0;101530;;;;
2022/12/07 05:46:00;;;;;;;2.3;2.3;;;;;;;2.7;100.0;101530;;;;
2022/12/07 05:47:00;;;;;;;2.3;2.3;;;;;;;2.8;100.0;101530;;;;
2022/12/07 05:48:00;;;;;;;2.3;2.3;;;;;;;2.8;100.0;101530;;;;
2022/12/07 05:49:00;;;;;;;2.3;2.3;;;;;;;2.7;100.0;101520;;;;
2022/12/07 05:50:01;;;;;;;2.3;2.3;;;;;;;2.7;100.0;101520;;;;
2022/12/07 05:51:00;;;;;;;2.3;2.3;;;;;;;2.8;100.0;101520;;;;
2022/12/07 05:52:00;;;;;;;2.3;2.3;;;;;;;2.8;100.0;101520;;;;
2022/12/07 05:53:00;;;;;;;2.3;2.3;;;;;;;2.8;100.0;101520;;;;
2022/12/07 05:54:00;;;;;;;2.4;2.4;;;;;;;2.8;100.0;101520;;;;
2022/12/07 05:55:00;;;;;;;2.4;2.4;;;;;;;2.8;100.0;101520;;;;
2022/12/07 05:56:00;;;;;;;2.4;2.4;;;;;;;2.8;100.0;101520;;;;
2022/12/07 05:57:00;;;;;;;2.4;2.4;;;;;;;2.8;100.0;101510;;;;
2022/12/07 06:00:01;;;;;;;2.4;2.4;;;;;;;2.8;100.0;101520;;;;
2022/12/07 06:01:00;;;;;;;2.4;2.4;;;;;;;2.7;100.0;101510;;;;
2022/12/07 06:02:02;;;;;;;2.4;2.4;;;;;;;2.7;100.0;101510;;;;
2022/12/07 06:03:00;;;;;;;2.4;2.4;;;;;;;2.7;100.0;101510;;;;
2022/12/07 06:04:00;;;;;;;2.4;2.4;;;;;;;2.7;100.0;101510;;;;
2022/12/07 06:05:00;;;;;;;2.4;2.4;;;;;;;2.8;100.0;101510;;;;
2022/12/07 06:06:00;;;;;;;2.4;2.4;;;;;;;2.8;100.0;101510;;;;
2022/12/07 06:07:00;;;;;;;2.4;2.4;;;;;;;2.7;100.0;101510;;;;
2022/12/07 06:08:06;;;;;;;2.4;2.4;;;;;;;2.7;100.0;101510;;;;
2022/12/07 06:09:00;;;;;;;2.4;2.4;;;;;;;2.7;100.0;101510;;;;
2022/12/07 06:10:01;;;;;;;2.4;2.4;;;;;;;2.7;100.0;101510;;;;
2022/12/07 06:13:00;;;;;;;2.4;2.4;;;;;;;2.6;100.0;101510;;;;
2022/12/07 06:14:00;;;;;;;2.6;2.5;;;;;;;2.6;100.0;101510;;;;
2022/12/07 06:15:00;;;;;;;2.6;2.5;;;;;;;2.7;100.0;101510;;;;
2022/12/07 06:16:00;;;;;;;2.6;2.5;;;;;;;2.7;100.0;101510;;;;
2022/12/07 06:17:00;;;;;;;2.6;2.5;;;;;;;2.6;100.0;101510;;;;
2022/12/07 06:18:00;;;;;;;2.6;2.5;;;;;;;2.6;100.0;101510;;;;
2022/12/07 06:19:00;;;;;;;2.6;2.5;;;;;;;2.5;100.0;101510;;;;
2022/12/07 06:20:01;;;;;;;2.6;2.5;;;;;;;2.5;100.0;101510;;;;
2022/12/07 06:21:00;;;;;;;2.6;2.5;;;;;;;2.5;100.0;101520;;;;
2022/12/07 06:22:00;;;;;;;2.6;2.5;;;;;;;2.5;100.0;101520;;;;
2022/12/07 06:23:00;;;;;;;2.6;2.5;;;;;;;2.5;100.0;101520;;;;
2022/12/07 06:24:00;;;;;;;2.6;2.5;;;;;;;2.5;100.0;101520;;;;
2022/12/07 06:25:07;;;;;;;2.6;2.5;;;;;;;2.5;100.0;101520;;;;
2022/12/07 06:26:00;;;;;;;2.6;2.5;;;;;;;2.5;100.0;101520;;;;
2022/12/07 06:27:00;;;;;;;2.6;2.5;;;;;;;2.5;100.0;101510;;;;
2022/12/07 06:28:00;;;;;;;2.6;2.5;;;;;;;2.5;100.0;101510;;;;
2022/12/07 06:29:00;;;;;;;2.6;2.5;;;;;;;2.4;100.0;101520;;;;
2022/12/07 06:30:06;;;;;;;2.6;2.5;;;;;;;2.4;100.0;101520;;;;
2022/12/07 06:31:01;;;;;;;2.6;2.5;;;;;;;2.4;100.0;101520;;;;
2022/12/07 06:32:00;;;;;;;2.6;2.5;;;;;;;2.4;100.0;101520;;;;
2022/12/07 06:33:00;;;;;;;2.6;2.5;;;;;;;2.4;100.0;101520;;;;
2022/12/07 06:34:01;;;;;;;2.9;2.8;;;;;;;2.4;100.0;101520;;;;
2022/12/07 06:35:00;;;;;;;2.9;2.8;;;;;;;2.3;100.0;101510;;;;
2022/12/07 06:36:00;;;;;;;2.9;2.8;;;;;;;2.3;100.0;101510;;;;